Time;durP1;ratioP1;P1;durP2;ratioP2;P2;SDS_P1;SDS_P2;PMS_P1;PMS_P2;Temp;Humidity;BMP_temperature;BMP_pressure;BME280_temperature;BME280_humidity;BME280_pressure;Samples;Min_cycle;Max_cycle;Signal;HPM_P1;HPM_P2
2019/06/21 00:01:36;;;;;;;1.50;1.40;;;;;;;22.34;57.24;100581.81;;;;-64
2019/06/21 00:04:36;;;;;;;1.98;1.77;;;;;;;22.33;57.23;100587.84;;;;-63
2019/06/21 00:07:36;;;;;;;2.42;1.39;;;;;;;22.32;57.30;100584.27;;;;-66
2019/06/21 00:10:36;;;;;;;2.04;1.33;;;;;;;22.32;57.30;100589.48;;;;-65
2019/06/21 00:13:36;;;;;;;1.73;1.47;;;;;;;22.31;57.25;100591.13;;;;-65
2019/06/21 00:16:36;;;;;;;1.84;1.53;;;;;;;22.31;57.28;100590.80;;;;-65
2019/06/21 00:19:36;;;;;;;1.86;1.49;;;;;;;22.31;57.31;100592.81;;;;-64
2019/06/21 00:22:36;;;;;;;2.29;1.40;;;;;;;22.30;57.30;100591.88;;;;-63
2019/06/21 00:25:36;;;;;;;3.26;1.40;;;;;;;22.30;57.31;100594.40;;;;-66
2019/06/21 00:28:36;;;;;;;1.62;1.52;;;;;;;22.29;57.30;100588.20;;;;-66
2019/06/21 00:31:36;;;;;;;2.23;1.40;;;;;;;22.29;57.30;100586.39;;;;-64
2019/06/21 00:34:36;;;;;;;1.43;1.30;;;;;;;22.29;57.26;100584.77;;;;-65
2019/06/21 00:37:36;;;;;;;1.50;1.40;;;;;;;22.28;57.31;100584.91;;;;-65
2019/06/21 00:40:36;;;;;;;1.77;1.50;;;;;;;22.28;57.26;100587.16;;;;-65
2019/06/21 00:43:36;;;;;;;2.26;1.41;;;;;;;22.27;57.29;100586.22;;;;-65
2019/06/21 00:46:36;;;;;;;2.21;1.50;;;;;;;22.27;57.26;100583.25;;;;-65
2019/06/21 00:49:36;;;;;;;1.61;1.50;;;;;;;22.26;57.35;100587.02;;;;-65
2019/06/21 00:52:36;;;;;;;1.75;1.60;;;;;;;22.26;57.33;100590.31;;;;-64
2019/06/21 00:55:36;;;;;;;1.47;1.37;;;;;;;22.26;57.28;100587.29;;;;-65
2019/06/21 00:58:36;;;;;;;1.71;1.59;;;;;;;22.25;57.25;100587.92;;;;-64
2019/06/21 01:01:36;;;;;;;1.55;1.45;;;;;;;22.26;57.25;100589.95;;;;-64
2019/06/21 01:04:36;;;;;;;1.47;1.37;;;;;;;22.25;57.29;100582.72;;;;-65
2019/06/21 01:07:36;;;;;;;1.69;1.49;;;;;;;22.25;57.27;100579.82;;;;-64
2019/06/21 01:10:36;;;;;;;1.53;1.39;;;;;;;22.24;57.25;100584.36;;;;-65
2019/06/21 01:13:36;;;;;;;1.76;1.54;;;;;;;22.23;57.33;100589.00;;;;-65
2019/06/21 01:16:36;;;;;;;1.57;1.47;;;;;;;22.24;57.33;100592.27;;;;-65
2019/06/21 01:19:36;;;;;;;1.49;1.39;;;;;;;22.24;57.27;100589.03;;;;-64
2019/06/21 01:22:36;;;;;;;1.53;1.43;;;;;;;22.23;57.28;100586.24;;;;-64
2019/06/21 01:25:36;;;;;;;1.46;1.36;;;;;;;22.23;57.26;100585.97;;;;-66
2019/06/21 01:28:36;;;;;;;1.68;1.39;;;;;;;22.22;57.30;100585.47;;;;-65
2019/06/21 01:31:36;;;;;;;1.81;1.49;;;;;;;22.22;57.29;100582.23;;;;-64
2019/06/21 01:34:36;;;;;;;1.63;1.50;;;;;;;22.22;57.25;100585.03;;;;-64
2019/06/21 01:37:36;;;;;;;1.44;1.34;;;;;;;22.21;57.28;100588.23;;;;-64
2019/06/21 01:40:36;;;;;;;1.63;1.53;;;;;;;22.21;57.28;100580.05;;;;-65
2019/06/21 01:43:36;;;;;;;1.70;1.60;;;;;;;22.21;57.33;100588.45;;;;-65
2019/06/21 01:46:36;;;;;;;1.50;1.40;;;;;;;22.20;57.30;100591.05;;;;-66
2019/06/21 01:49:36;;;;;;;2.59;1.40;;;;;;;22.20;57.28;100588.09;;;;-64
2019/06/21 01:52:36;;;;;;;1.83;1.43;;;;;;;22.20;57.29;100588.77;;;;-64
2019/06/21 01:55:36;;;;;;;1.59;1.49;;;;;;;22.20;57.28;100589.60;;;;-63
2019/06/21 01:58:36;;;;;;;2.01;1.41;;;;;;;22.20;57.26;100600.34;;;;-64
2019/06/21 02:01:36;;;;;;;1.91;1.50;;;;;;;22.19;57.26;100606.02;;;;-65
2019/06/21 02:04:36;;;;;;;1.41;1.31;;;;;;;22.19;57.34;100605.72;;;;-65
2019/06/21 02:07:36;;;;;;;1.68;1.42;;;;;;;22.19;57.31;100602.86;;;;-65
2019/06/21 02:10:36;;;;;;;1.60;1.50;;;;;;;22.18;57.29;100598.61;;;;-65
2019/06/21 02:13:36;;;;;;;2.63;1.53;;;;;;;22.18;57.27;100598.75;;;;-65
2019/06/21 02:16:36;;;;;;;1.50;1.40;;;;;;;22.18;57.30;100607.77;;;;-65
2019/06/21 02:19:36;;;;;;;1.55;1.45;;;;;;;22.18;57.27;100605.08;;;;-65
2019/06/21 02:22:36;;;;;;;1.41;1.31;;;;;;;22.18;57.30;100603.63;;;;-64
2019/06/21 02:25:36;;;;;;;1.44;1.34;;;;;;;22.17;57.32;100602.38;;;;-64
2019/06/21 02:28:36;;;;;;;1.41;1.31;;;;;;;22.17;57.29;100604.37;;;;-66
2019/06/21 02:31:36;;;;;;;1.45;1.35;;;;;;;22.17;57.31;100603.76;;;;-65
2019/06/21 02:34:36;;;;;;;1.86;1.41;;;;;;;22.17;57.25;100608.30;;;;-64
2019/06/21 02:37:36;;;;;;;1.39;1.29;;;;;;;22.16;57.31;100609.91;;;;-64
2019/06/21 02:40:36;;;;;;;3.03;1.41;;;;;;;22.16;57.26;100603.16;;;;-64
2019/06/21 02:43:36;;;;;;;1.75;1.55;;;;;;;22.16;57.27;100604.23;;;;-66
2019/06/21 02:46:36;;;;;;;1.42;1.32;;;;;;;22.16;57.28;100601.88;;;;-65
2019/06/21 02:49:36;;;;;;;1.51;1.41;;;;;;;22.16;57.22;100605.67;;;;-65
2019/06/21 02:52:36;;;;;;;1.41;1.31;;;;;;;22.15;57.29;100606.69;;;;-65
2019/06/21 02:55:36;;;;;;;1.46;1.36;;;;;;;22.15;57.25;100607.92;;;;-65
2019/06/21 02:58:36;;;;;;;1.50;1.40;;;;;;;22.15;57.23;100605.80;;;;-65
2019/06/21 03:01:36;;;;;;;1.50;1.40;;;;;;;22.15;57.26;100608.56;;;;-66
2019/06/21 03:04:36;;;;;;;1.50;1.40;;;;;;;22.14;57.28;100610.34;;;;-64
2019/06/21 03:07:36;;;;;;;1.69;1.42;;;;;;;22.14;57.29;100616.13;;;;-66
2019/06/21 03:10:36;;;;;;;1.50;1.40;;;;;;;22.14;57.23;100617.72;;;;-66
2019/06/21 03:13:36;;;;;;;1.43;1.33;;;;;;;22.13;57.21;100620.30;;;;-66
2019/06/21 03:16:36;;;;;;;1.41;1.30;;;;;;;22.13;57.29;100625.52;;;;-66
2019/06/21 03:19:36;;;;;;;1.57;1.30;;;;;;;22.13;57.25;100631.84;;;;-66
2019/06/21 03:22:36;;;;;;;1.37;1.27;;;;;;;22.13;57.27;100634.60;;;;-64
2019/06/21 03:25:36;;;;;;;1.46;1.36;;;;;;;22.13;57.24;100639.31;;;;-64
2019/06/21 03:28:36;;;;;;;1.41;1.31;;;;;;;22.13;57.22;100642.34;;;;-66
2019/06/21 03:31:36;;;;;;;1.50;1.40;;;;;;;22.12;57.22;100647.12;;;;-65
2019/06/21 03:34:36;;;;;;;1.45;1.35;;;;;;;22.12;57.28;100646.17;;;;-63
2019/06/21 03:37:36;;;;;;;1.54;1.42;;;;;;;22.12;57.25;100646.07;;;;-65
2019/06/21 03:40:36;;;;;;;1.46;1.36;;;;;;;22.12;57.21;100644.83;;;;-65
2019/06/21 03:43:36;;;;;;;1.41;1.31;;;;;;;22.11;57.28;100649.09;;;;-66
2019/06/21 03:46:36;;;;;;;1.47;1.37;;;;;;;22.10;57.22;100650.23;;;;-65
2019/06/21 03:49:36;;;;;;;1.50;1.30;;;;;;;22.10;57.27;100646.38;;;;-66
2019/06/21 03:52:36;;;;;;;1.50;1.40;;;;;;;22.11;57.19;100647.81;;;;-65
2019/06/21 03:55:36;;;;;;;1.39;1.29;;;;;;;22.11;57.23;100652.59;;;;-64
2019/06/21 03:58:36;;;;;;;1.45;1.35;;;;;;;22.10;57.24;100647.78;;;;-63
2019/06/21 04:01:36;;;;;;;1.41;1.31;;;;;;;22.10;57.25;100656.53;;;;-64
2019/06/21 04:04:36;;;;;;;1.49;1.39;;;;;;;22.10;57.22;100660.23;;;;-64
2019/06/21 04:07:36;;;;;;;1.40;1.30;;;;;;;22.09;57.18;100662.81;;;;-65
2019/06/21 04:10:36;;;;;;;1.95;1.34;;;;;;;22.10;57.21;100665.44;;;;-64
2019/06/21 04:13:36;;;;;;;1.59;1.45;;;;;;;22.09;57.23;100664.39;;;;-65
2019/06/21 04:16:36;;;;;;;1.43;1.33;;;;;;;22.10;57.22;100663.33;;;;-65
2019/06/21 04:19:36;;;;;;;1.36;1.26;;;;;;;22.09;57.22;100664.30;;;;-65
2019/06/21 04:22:36;;;;;;;1.47;1.35;;;;;;;22.08;57.26;100661.94;;;;-65
2019/06/21 04:25:36;;;;;;;1.50;1.40;;;;;;;22.09;57.20;100661.88;;;;-65
2019/06/21 04:28:36;;;;;;;1.30;1.20;;;;;;;22.09;57.24;100660.59;;;;-66
2019/06/21 04:31:36;;;;;;;2.04;1.39;;;;;;;22.08;57.21;100655.55;;;;-64
2019/06/21 04:34:36;;;;;;;1.44;1.34;;;;;;;22.09;57.20;100656.48;;;;-64
2019/06/21 04:37:36;;;;;;;1.40;1.30;;;;;;;22.08;57.19;100661.73;;;;-65
2019/06/21 04:40:36;;;;;;;1.50;1.40;;;;;;;22.08;57.22;100656.79;;;;-65
2019/06/21 04:43:36;;;;;;;1.54;1.44;;;;;;;22.08;57.17;100657.13;;;;-65
2019/06/21 04:46:36;;;;;;;1.62;1.26;;;;;;;22.08;57.19;100649.63;;;;-64
2019/06/21 04:49:36;;;;;;;1.67;1.49;;;;;;;22.08;57.22;100653.16;;;;-65
2019/06/21 04:52:36;;;;;;;1.50;1.40;;;;;;;22.07;57.21;100650.42;;;;-65
2019/06/21 04:55:36;;;;;;;1.50;1.40;;;;;;;22.07;57.19;100654.40;;;;-64
2019/06/21 04:58:36;;;;;;;1.39;1.29;;;;;;;22.06;57.16;100659.74;;;;-64
2019/06/21 05:01:36;;;;;;;1.22;1.20;;;;;;;22.07;57.14;100664.83;;;;-64
2019/06/21 05:04:36;;;;;;;1.31;1.21;;;;;;;22.07;57.17;100666.67;;;;-65
2019/06/21 05:07:36;;;;;;;1.54;1.44;;;;;;;22.06;57.18;100670.51;;;;-63
2019/06/21 05:10:36;;;;;;;1.31;1.21;;;;;;;22.06;57.18;100677.07;;;;-64
2019/06/21 05:13:36;;;;;;;1.77;1.30;;;;;;;22.07;57.17;100675.16;;;;-66
2019/06/21 05:16:36;;;;;;;1.31;1.26;;;;;;;22.07;57.18;100679.19;;;;-65
2019/06/21 05:19:36;;;;;;;3.87;2.22;;;;;;;22.01;57.55;100679.73;;;;-63
2019/06/21 05:22:36;;;;;;;4.19;3.05;;;;;;;21.74;58.56;100681.33;;;;-61
2019/06/21 05:25:36;;;;;;;3.99;3.41;;;;;;;21.67;59.20;100682.00;;;;-62
2019/06/21 05:28:36;;;;;;;3.92;3.39;;;;;;;21.54;58.40;100683.91;;;;-64
2019/06/21 05:31:36;;;;;;;3.86;3.51;;;;;;;21.43;59.35;100685.38;;;;-64
2019/06/21 05:34:35;;;;;;;4.43;3.59;;;;;;;21.46;59.37;100683.52;;;;-63
2019/06/21 05:37:36;;;;;;;4.45;3.69;;;;;;;21.40;59.39;100685.36;;;;-62
2019/06/21 05:40:36;;;;;;;4.73;3.76;;;;;;;21.36;59.69;100688.50;;;;-61
2019/06/21 05:43:36;;;;;;;4.61;3.94;;;;;;;21.36;59.32;100692.53;;;;-53
2019/06/21 05:46:36;;;;;;;5.37;3.89;;;;;;;21.32;59.61;100694.71;;;;-53
2019/06/21 05:49:36;;;;;;;4.21;3.70;;;;;;;21.32;59.46;100696.56;;;;-52
2019/06/21 05:52:36;;;;;;;4.20;3.80;;;;;;;21.31;59.37;100688.22;;;;-52
2019/06/21 05:55:36;;;;;;;4.01;3.56;;;;;;;21.30;59.76;100694.20;;;;-52
2019/06/21 05:58:36;;;;;;;4.58;3.82;;;;;;;21.29;59.83;100698.39;;;;-53
2019/06/21 06:01:36;;;;;;;4.50;3.69;;;;;;;21.27;59.32;100699.05;;;;-52
2019/06/21 06:04:36;;;;;;;4.13;3.73;;;;;;;21.28;59.60;100699.59;;;;-53
2019/06/21 06:07:36;;;;;;;4.34;3.49;;;;;;;21.27;59.90;100699.62;;;;-53
2019/06/21 06:10:36;;;;;;;4.33;3.40;;;;;;;21.28;59.88;100702.62;;;;-53
2019/06/21 06:13:35;;;;;;;3.67;3.25;;;;;;;21.28;59.90;100705.03;;;;-51
2019/06/21 06:16:36;;;;;;;4.02;3.59;;;;;;;21.29;60.03;100700.80;;;;-53
2019/06/21 06:19:36;;;;;;;5.60;3.73;;;;;;;21.30;59.87;100700.69;;;;-52
2019/06/21 06:22:36;;;;;;;4.88;4.24;;;;;;;21.28;58.84;100707.66;;;;-52
2019/06/21 06:25:36;;;;;;;4.79;4.13;;;;;;;21.25;59.09;100710.89;;;;-51
2019/06/21 06:28:36;;;;;;;4.51;3.55;;;;;;;21.30;60.33;100717.14;;;;-51
2019/06/21 06:31:35;;;;;;;4.93;3.85;;;;;;;21.30;59.96;100719.77;;;;-51
2019/06/21 06:34:36;;;;;;;7.11;4.13;;;;;;;21.32;59.01;100719.91;;;;-52
2019/06/21 06:37:36;;;;;;;4.49;4.08;;;;;;;21.25;58.95;100720.56;;;;-52
2019/06/21 06:40:36;;;;;;;4.64;3.67;;;;;;;21.29;59.77;100720.97;;;;-52
2019/06/21 06:43:36;;;;;;;4.34;3.47;;;;;;;21.33;59.81;100721.87;;;;-51
2019/06/21 06:46:37;;;;;;;3.95;3.59;;;;;;;21.32;59.76;100722.27;;;;-48
2019/06/21 06:49:36;;;;;;;4.75;3.45;;;;;;;21.33;59.91;100721.07;;;;-47
2019/06/21 06:52:36;;;;;;;5.65;3.98;;;;;;;21.39;59.71;100718.63;;;;-59
2019/06/21 06:55:36;;;;;;;3.67;3.27;;;;;;;21.43;59.69;100720.88;;;;-58
2019/06/21 06:58:36;;;;;;;5.80;3.63;;;;;;;21.45;59.74;100715.03;;;;-58
2019/06/21 07:01:36;;;;;;;3.85;3.45;;;;;;;21.46;59.46;100722.84;;;;-59
2019/06/21 07:04:36;;;;;;;11.70;4.18;;;;;;;21.51;59.69;100719.91;;;;-56
2019/06/21 07:07:36;;;;;;;12.03;3.95;;;;;;;21.56;59.58;100720.45;;;;-56
2019/06/21 07:10:35;;;;;;;11.83;3.83;;;;;;;21.58;59.50;100722.72;;;;-57
2019/06/21 07:13:36;;;;;;;6.97;3.63;;;;;;;21.61;59.44;100723.78;;;;-60
2019/06/21 07:16:36;;;;;;;7.37;3.58;;;;;;;21.64;59.38;100728.00;;;;-59
2019/06/21 07:19:36;;;;;;;10.75;3.42;;;;;;;21.64;59.38;100728.14;;;;-59
2019/06/21 07:22:36;;;;;;;6.48;3.28;;;;;;;21.66;59.31;100729.56;;;;-61
2019/06/21 07:25:36;;;;;;;5.39;3.19;;;;;;;21.68;59.19;100734.75;;;;-59
2019/06/21 07:28:36;;;;;;;6.77;3.22;;;;;;;21.69;59.17;100736.54;;;;-59
2019/06/21 07:31:36;;;;;;;6.31;3.36;;;;;;;21.70;59.01;100739.00;;;;-58
2019/06/21 07:34:36;;;;;;;7.36;2.99;;;;;;;21.71;59.01;100732.42;;;;-59
2019/06/21 07:37:36;;;;;;;6.53;3.43;;;;;;;21.72;58.86;100732.89;;;;-59
2019/06/21 07:40:36;;;;;;;5.45;2.85;;;;;;;21.73;58.80;100740.40;;;;-59
2019/06/21 07:43:36;;;;;;;5.04;2.89;;;;;;;21.74;58.75;100740.20;;;;-60
2019/06/21 07:46:36;;;;;;;4.80;2.87;;;;;;;21.75;58.71;100743.91;;;;-59
2019/06/21 07:49:35;;;;;;;6.68;3.07;;;;;;;21.76;58.67;100747.91;;;;-59
2019/06/21 07:52:36;;;;;;;5.29;2.83;;;;;;;21.77;58.59;100749.36;;;;-60
2019/06/21 07:55:36;;;;;;;5.76;2.85;;;;;;;21.77;58.57;100742.81;;;;-59
2019/06/21 07:58:36;;;;;;;3.97;2.78;;;;;;;21.78;58.50;100745.20;;;;-59
2019/06/21 08:01:36;;;;;;;4.21;2.67;;;;;;;21.78;58.45;100745.30;;;;-61
2019/06/21 08:04:36;;;;;;;7.18;2.84;;;;;;;21.79;58.48;100745.58;;;;-60
2019/06/21 08:07:36;;;;;;;4.75;2.90;;;;;;;21.79;58.42;100748.60;;;;-59
2019/06/21 08:10:36;;;;;;;4.04;2.85;;;;;;;21.80;58.36;100749.48;;;;-59
2019/06/21 08:13:36;;;;;;;4.31;3.01;;;;;;;21.81;58.34;100754.84;;;;-60
2019/06/21 08:16:36;;;;;;;3.84;2.72;;;;;;;21.81;58.35;100761.39;;;;-59
2019/06/21 08:19:36;;;;;;;4.63;2.90;;;;;;;21.81;58.33;100757.59;;;;-59
2019/06/21 08:22:36;;;;;;;5.48;2.85;;;;;;;21.81;58.25;100758.37;;;;-59
2019/06/21 08:25:35;;;;;;;2.77;2.46;;;;;;;21.82;58.26;100756.96;;;;-51
2019/06/21 08:28:36;;;;;;;3.79;2.91;;;;;;;21.82;58.17;100758.64;;;;-51
2019/06/21 08:31:36;;;;;;;3.66;2.70;;;;;;;21.83;58.16;100764.41;;;;-51
2019/06/21 08:34:36;;;;;;;4.79;2.65;;;;;;;21.83;58.13;100767.59;;;;-51
2019/06/21 08:37:36;;;;;;;4.41;2.82;;;;;;;21.85;58.23;100773.22;;;;-57
2019/06/21 08:40:36;;;;;;;2.92;2.55;;;;;;;21.87;58.28;100774.48;;;;-52
2019/06/21 08:43:35;;;;;;;6.03;2.73;;;;;;;21.90;58.61;100767.20;;;;-52
2019/06/21 08:46:36;;;;;;;3.81;2.63;;;;;;;21.89;58.58;100766.83;;;;-52
2019/06/21 08:49:36;;;;;;;5.45;2.78;;;;;;;21.93;58.52;100769.30;;;;-53
2019/06/21 08:52:36;;;;;;;5.02;2.69;;;;;;;21.95;58.48;100771.53;;;;-62
2019/06/21 08:55:36;;;;;;;3.98;2.59;;;;;;;21.96;58.43;100765.19;;;;-58
2019/06/21 08:58:36;;;;;;;3.53;2.65;;;;;;;21.99;58.51;100768.86;;;;-61
2019/06/21 09:01:36;;;;;;;4.86;2.34;;;;;;;22.01;58.59;100771.33;;;;-58
2019/06/21 09:04:36;;;;;;;5.53;2.65;;;;;;;22.03;58.67;100772.55;;;;-59
2019/06/21 09:07:36;;;;;;;4.55;2.57;;;;;;;22.05;58.58;100770.20;;;;-61
2019/06/21 09:10:36;;;;;;;3.98;2.63;;;;;;;22.06;58.59;100766.31;;;;-61
2019/06/21 09:13:36;;;;;;;3.14;2.37;;;;;;;22.07;58.58;100765.30;;;;-60
2019/06/21 09:16:36;;;;;;;5.75;2.87;;;;;;;22.09;58.72;100765.89;;;;-57
2019/06/21 09:19:36;;;;;;;5.86;2.81;;;;;;;22.12;58.87;100765.61;;;;-60
2019/06/21 09:22:36;;;;;;;4.24;2.60;;;;;;;22.14;58.74;100771.73;;;;-51
2019/06/21 09:25:36;;;;;;;5.48;2.81;;;;;;;22.15;58.79;100768.04;;;;-51
2019/06/21 09:28:36;;;;;;;4.35;2.59;;;;;;;22.16;58.79;100769.02;;;;-51
2019/06/21 09:31:36;;;;;;;4.72;2.71;;;;;;;22.17;58.68;100769.50;;;;-51
2019/06/21 09:34:36;;;;;;;6.16;2.78;;;;;;;22.18;58.74;100766.74;;;;-62
2019/06/21 09:37:36;;;;;;;4.28;2.62;;;;;;;22.19;58.58;100776.74;;;;-52
2019/06/21 09:40:36;;;;;;;4.27;2.41;;;;;;;22.20;58.62;100773.25;;;;-51
2019/06/21 09:43:36;;;;;;;4.36;2.60;;;;;;;22.22;58.60;100770.33;;;;-52
2019/06/21 09:46:36;;;;;;;4.99;2.73;;;;;;;22.23;58.62;100770.23;;;;-61
2019/06/21 09:49:36;;;;;;;4.13;2.57;;;;;;;22.24;58.59;100766.88;;;;-58
2019/06/21 09:52:36;;;;;;;4.82;2.57;;;;;;;22.25;58.66;100762.47;;;;-58
2019/06/21 09:55:36;;;;;;;5.77;2.66;;;;;;;22.26;58.53;100760.72;;;;-52
2019/06/21 09:58:36;;;;;;;4.29;2.55;;;;;;;22.26;58.45;100759.37;;;;-52
2019/06/21 10:01:35;;;;;;;5.72;2.70;;;;;;;22.27;58.59;100755.04;;;;-51
2019/06/21 10:04:36;;;;;;;4.53;2.61;;;;;;;22.27;58.44;100759.18;;;;-57
2019/06/21 10:07:36;;;;;;;7.72;2.73;;;;;;;22.29;58.54;100761.67;;;;-57
2019/06/21 10:10:36;;;;;;;3.37;2.55;;;;;;;22.29;58.47;100757.07;;;;-48
2019/06/21 10:13:35;;;;;;;5.48;2.63;;;;;;;22.30;58.45;100757.78;;;;-48
2019/06/21 10:16:35;;;;;;;5.27;2.63;;;;;;;22.31;58.46;100758.48;;;;-47
2019/06/21 10:19:35;;;;;;;4.86;2.52;;;;;;;22.33;58.48;100759.58;;;;-58
2019/06/21 10:22:35;;;;;;;4.83;2.63;;;;;;;22.34;58.40;100748.70;;;;-53
2019/06/21 10:25:36;;;;;;;5.96;2.60;;;;;;;22.36;58.61;100747.67;;;;-54
2019/06/21 10:28:36;;;;;;;5.11;2.71;;;;;;;22.36;58.37;100748.78;;;;-52
2019/06/21 10:31:36;;;;;;;5.23;2.54;;;;;;;22.36;58.39;100743.40;;;;-54
2019/06/21 10:34:36;;;;;;;6.70;2.69;;;;;;;22.37;58.31;100742.49;;;;-48
2019/06/21 10:37:36;;;;;;;6.79;2.55;;;;;;;22.39;58.42;100745.77;;;;-61
2019/06/21 10:40:36;;;;;;;5.26;2.71;;;;;;;22.40;58.32;100745.97;;;;-65
2019/06/21 10:43:36;;;;;;;4.49;2.68;;;;;;;22.40;58.39;100748.56;;;;-57
2019/06/21 10:46:36;;;;;;;7.27;2.59;;;;;;;22.41;58.44;100755.59;;;;-59
2019/06/21 10:49:36;;;;;;;5.33;2.61;;;;;;;22.41;58.22;100750.78;;;;-59
2019/06/21 10:52:35;;;;;;;4.91;2.81;;;;;;;22.41;58.34;100745.50;;;;-57
2019/06/21 10:55:36;;;;;;;3.75;2.65;;;;;;;22.42;58.21;100744.53;;;;-60
2019/06/21 10:58:36;;;;;;;9.65;2.72;;;;;;;22.42;58.08;100740.59;;;;-61
2019/06/21 11:01:36;;;;;;;9.05;2.81;;;;;;;22.42;58.38;100741.91;;;;-61
2019/06/21 11:04:36;;;;;;;5.86;2.69;;;;;;;22.43;58.22;100742.21;;;;-58
2019/06/21 11:07:36;;;;;;;6.91;2.78;;;;;;;22.43;58.17;100739.75;;;;-60
2019/06/21 11:10:35;;;;;;;3.54;2.50;;;;;;;22.43;58.19;100737.16;;;;-57
2019/06/21 11:13:36;;;;;;;3.71;2.82;;;;;;;22.44;58.19;100730.40;;;;-62
2019/06/21 11:16:36;;;;;;;6.29;2.35;;;;;;;22.45;57.81;100734.70;;;;-56
2019/06/21 11:19:36;;;;;;;9.11;2.70;;;;;;;22.43;57.95;100732.02;;;;-51
2019/06/21 11:22:36;;;;;;;4.41;2.55;;;;;;;22.43;58.08;100732.95;;;;-51
2019/06/21 11:25:36;;;;;;;4.57;2.70;;;;;;;22.41;58.07;100732.71;;;;-51
2019/06/21 11:28:35;;;;;;;5.94;2.57;;;;;;;22.41;58.06;100727.16;;;;-56
2019/06/21 11:31:35;;;;;;;4.12;2.52;;;;;;;22.41;58.12;100724.13;;;;-56
2019/06/21 11:34:36;;;;;;;4.57;2.61;;;;;;;22.40;57.93;100724.09;;;;-60
2019/06/21 11:37:36;;;;;;;5.54;2.85;;;;;;;22.39;57.92;100719.24;;;;-60
2019/06/21 11:40:36;;;;;;;6.36;2.59;;;;;;;22.38;57.98;100719.07;;;;-61
2019/06/21 11:43:36;;;;;;;6.89;2.86;;;;;;;22.37;57.88;100713.38;;;;-60
2019/06/21 11:46:36;;;;;;;4.54;2.57;;;;;;;22.37;57.88;100715.06;;;;-51
2019/06/21 11:49:35;;;;;;;2.97;2.57;;;;;;;22.37;57.83;100715.16;;;;-51
2019/06/21 11:52:35;;;;;;;4.66;2.55;;;;;;;22.36;57.86;100713.61;;;;-60
2019/06/21 11:55:36;;;;;;;3.73;2.41;;;;;;;22.36;57.80;100708.73;;;;-59
2019/06/21 11:58:36;;;;;;;4.58;2.37;;;;;;;22.36;57.84;100711.83;;;;-54
2019/06/21 12:01:36;;;;;;;6.41;2.51;;;;;;;22.35;57.78;100706.91;;;;-51
2019/06/21 12:04:36;;;;;;;3.99;2.41;;;;;;;22.35;57.75;100710.04;;;;-50
2019/06/21 12:07:35;;;;;;;4.09;2.43;;;;;;;22.35;57.72;100707.75;;;;-50
2019/06/21 12:10:35;;;;;;;3.38;2.25;;;;;;;22.34;57.65;100707.05;;;;-51
2019/06/21 12:13:35;;;;;;;5.12;2.39;;;;;;;22.35;57.75;100712.13;;;;-51
2019/06/21 12:16:36;;;;;;;5.13;2.35;;;;;;;22.33;57.70;100710.10;;;;-50
2019/06/21 12:19:36;;;;;;;4.56;2.53;;;;;;;22.33;57.72;100708.82;;;;-60
2019/06/21 12:22:36;;;;;;;3.47;2.25;;;;;;;22.33;57.67;100715.38;;;;-60
2019/06/21 12:25:36;;;;;;;2.95;2.36;;;;;;;22.32;57.60;100708.95;;;;-60
2019/06/21 12:28:35;;;;;;;3.60;2.31;;;;;;;22.32;57.65;100709.96;;;;-60
2019/06/21 12:31:36;;;;;;;2.81;2.33;;;;;;;22.31;57.61;100709.02;;;;-60
2019/06/21 12:34:36;;;;;;;3.25;2.32;;;;;;;22.31;57.61;100702.12;;;;-50
2019/06/21 12:37:36;;;;;;;4.99;2.43;;;;;;;22.31;57.60;100704.30;;;;-51
2019/06/21 12:40:36;;;;;;;4.65;2.48;;;;;;;22.31;57.57;100708.08;;;;-53
2019/06/21 12:43:35;;;;;;;4.11;2.44;;;;;;;22.30;57.53;100706.45;;;;-60
2019/06/21 12:46:35;;;;;;;4.18;2.39;;;;;;;22.31;57.58;100709.92;;;;-60
2019/06/21 12:49:35;;;;;;;3.44;2.20;;;;;;;22.30;57.50;100704.94;;;;-51
2019/06/21 12:52:36;;;;;;;4.26;2.23;;;;;;;22.30;57.65;100705.62;;;;-48
2019/06/21 12:55:36;;;;;;;4.16;2.39;;;;;;;22.30;57.64;100706.45;;;;-48
2019/06/21 12:58:36;;;;;;;7.55;2.61;;;;;;;22.29;57.63;100702.11;;;;-51
2019/06/21 13:01:36;;;;;;;3.61;2.40;;;;;;;22.29;57.65;100704.57;;;;-48
2019/06/21 13:04:36;;;;;;;4.34;2.33;;;;;;;22.31;57.63;100705.66;;;;-48
2019/06/21 13:07:36;;;;;;;6.61;2.38;;;;;;;22.33;57.64;100706.41;;;;-47
2019/06/21 13:10:36;;;;;;;5.01;2.55;;;;;;;22.35;57.68;100704.55;;;;-50
2019/06/21 13:13:36;;;;;;;4.78;2.31;;;;;;;22.36;57.74;100707.22;;;;-50
2019/06/21 13:16:36;;;;;;;4.56;2.35;;;;;;;22.37;57.65;100699.75;;;;-51
2019/06/21 13:19:35;;;;;;;6.80;2.33;;;;;;;22.39;57.62;100700.83;;;;-50
2019/06/21 13:22:35;;;;;;;6.19;2.41;;;;;;;22.40;57.56;100701.03;;;;-51
2019/06/21 13:25:35;;;;;;;4.01;2.27;;;;;;;22.40;57.75;100702.05;;;;-52
2019/06/21 13:28:35;;;;;;;4.58;2.39;;;;;;;22.42;57.78;100703.97;;;;-53
2019/06/21 13:31:36;;;;;;;3.80;2.19;;;;;;;22.41;57.64;100700.33;;;;-53
2019/06/21 13:34:36;;;;;;;7.21;2.48;;;;;;;22.43;57.60;100698.86;;;;-49
2019/06/21 13:37:35;;;;;;;4.85;2.29;;;;;;;22.43;57.69;100695.76;;;;-51
2019/06/21 13:40:36;;;;;;;4.17;2.53;;;;;;;22.44;57.67;100691.92;;;;-51
2019/06/21 13:43:35;;;;;;;3.43;2.47;;;;;;;22.45;57.63;100686.91;;;;-51
2019/06/21 13:46:35;;;;;;;5.10;2.45;;;;;;;22.44;57.61;100683.11;;;;-52
2019/06/21 13:49:36;;;;;;;4.39;2.33;;;;;;;22.45;57.53;100681.80;;;;-54
2019/06/21 13:52:36;;;;;;;4.13;2.33;;;;;;;22.46;57.76;100678.27;;;;-51
2019/06/21 13:55:36;;;;;;;4.99;2.40;;;;;;;22.46;57.47;100681.16;;;;-56
2019/06/21 13:58:35;;;;;;;4.67;2.51;;;;;;;22.49;57.51;100681.80;;;;-52
2019/06/21 14:01:36;;;;;;;4.45;2.37;;;;;;;22.50;57.52;100679.75;;;;-52
2019/06/21 14:04:35;;;;;;;4.02;2.54;;;;;;;22.50;57.63;100676.89;;;;-51
2019/06/21 14:07:36;;;;;;;5.48;2.54;;;;;;;22.50;57.52;100676.22;;;;-51
2019/06/21 14:10:36;;;;;;;7.67;2.11;;;;;;;22.51;57.64;100670.91;;;;-51
2019/06/21 14:13:36;;;;;;;4.47;2.30;;;;;;;22.51;57.50;100674.44;;;;-53
2019/06/21 14:16:35;;;;;;;3.01;2.17;;;;;;;22.51;57.51;100668.20;;;;-50
2019/06/21 14:19:36;;;;;;;2.55;2.15;;;;;;;22.52;57.58;100666.45;;;;-58
2019/06/21 14:22:35;;;;;;;4.28;2.36;;;;;;;22.52;57.56;100663.02;;;;-63
2019/06/21 14:25:35;;;;;;;3.33;2.36;;;;;;;22.52;57.49;100655.82;;;;-56
2019/06/21 14:28:36;;;;;;;3.50;2.31;;;;;;;22.53;57.58;100655.35;;;;-58
2019/06/21 14:31:36;;;;;;;4.79;2.39;;;;;;;22.53;57.62;100653.64;;;;-57
2019/06/21 14:34:35;;;;;;;4.11;2.38;;;;;;;22.54;57.57;100649.33;;;;-58
2019/06/21 14:37:35;;;;;;;2.89;2.21;;;;;;;22.54;57.56;100650.94;;;;-64
2019/06/21 14:40:35;;;;;;;2.78;2.29;;;;;;;22.55;57.50;100647.88;;;;-63
2019/06/21 14:43:35;;;;;;;3.54;2.44;;;;;;;22.55;57.50;100646.16;;;;-62
2019/06/21 14:46:35;;;;;;;8.18;2.59;;;;;;;22.55;57.75;100648.45;;;;-62
2019/06/21 14:49:36;;;;;;;6.25;2.67;;;;;;;22.56;57.63;100647.75;;;;-61
2019/06/21 14:52:36;;;;;;;8.97;2.69;;;;;;;22.56;57.57;100646.23;;;;-56
2019/06/21 14:55:35;;;;;;;5.35;2.64;;;;;;;22.56;57.49;100645.12;;;;-60
2019/06/21 14:58:35;;;;;;;4.88;2.63;;;;;;;22.57;57.43;100642.20;;;;-51
2019/06/21 15:01:36;;;;;;;8.19;2.55;;;;;;;22.57;57.52;100642.12;;;;-51
2019/06/21 15:04:36;;;;;;;3.89;2.33;;;;;;;22.57;57.57;100644.66;;;;-51
2019/06/21 15:07:36;;;;;;;4.98;2.51;;;;;;;22.58;57.51;100646.20;;;;-47
2019/06/21 15:10:36;;;;;;;3.37;2.29;;;;;;;22.58;57.67;100647.88;;;;-47
2019/06/21 15:13:36;;;;;;;5.82;2.56;;;;;;;22.57;57.70;100644.75;;;;-49
2019/06/21 15:16:36;;;;;;;4.44;2.35;;;;;;;22.58;57.60;100643.34;;;;-47
2019/06/21 15:19:35;;;;;;;5.13;2.38;;;;;;;22.59;57.55;100643.55;;;;-49
2019/06/21 15:22:35;;;;;;;4.56;2.64;;;;;;;22.60;57.48;100646.44;;;;-50
2019/06/21 15:25:36;;;;;;;3.68;2.48;;;;;;;22.60;57.54;100646.03;;;;-46
2019/06/21 15:28:35;;;;;;;3.53;2.45;;;;;;;22.61;57.47;100651.02;;;;-47
2019/06/21 15:31:35;;;;;;;5.92;2.46;;;;;;;22.61;57.62;100645.30;;;;-48
2019/06/21 15:34:36;;;;;;;5.73;2.52;;;;;;;22.60;57.25;100638.80;;;;-47
2019/06/21 15:37:36;;;;;;;4.99;2.31;;;;;;;22.60;57.49;100637.92;;;;-47
2019/06/21 15:40:36;;;;;;;3.03;2.62;;;;;;;22.58;57.57;100638.02;;;;-48
2019/06/21 15:43:36;;;;;;;3.66;2.39;;;;;;;22.57;57.61;100637.01;;;;-47
2019/06/21 15:46:36;;;;;;;3.49;2.40;;;;;;;22.57;57.49;100641.19;;;;-47
2019/06/21 15:49:35;;;;;;;3.73;2.23;;;;;;;22.55;57.47;100635.83;;;;-47
2019/06/21 15:52:36;;;;;;;2.49;2.20;;;;;;;22.55;57.47;100633.30;;;;-47
2019/06/21 15:55:37;;;;;;;6.98;2.44;;;;;;;22.55;57.54;100633.03;;;;-46
2019/06/21 15:58:36;;;;;;;10.23;2.57;;;;;;;22.55;57.41;100633.03;;;;-49
2019/06/21 16:01:35;;;;;;;7.25;2.43;;;;;;;22.56;57.43;100631.55;;;;-50
2019/06/21 16:04:36;;;;;;;4.89;2.59;;;;;;;22.55;57.33;100631.95;;;;-47
2019/06/21 16:07:35;;;;;;;5.10;2.43;;;;;;;22.55;57.40;100635.66;;;;-47
2019/06/21 16:10:36;;;;;;;3.43;2.39;;;;;;;22.54;57.47;100632.94;;;;-47
2019/06/21 16:13:36;;;;;;;6.60;2.44;;;;;;;22.53;57.44;100629.94;;;;-47
2019/06/21 16:16:36;;;;;;;5.31;2.42;;;;;;;22.53;57.32;100632.39;;;;-47
2019/06/21 16:19:36;;;;;;;5.86;2.57;;;;;;;22.52;57.40;100629.66;;;;-47
2019/06/21 16:22:36;;;;;;;7.04;2.37;;;;;;;22.52;57.30;100634.11;;;;-47
2019/06/21 16:25:35;;;;;;;3.96;2.51;;;;;;;22.51;57.33;100633.94;;;;-47
2019/06/21 16:28:35;;;;;;;4.31;2.42;;;;;;;22.51;57.42;100631.08;;;;-47
2019/06/21 16:31:35;;;;;;;3.29;2.50;;;;;;;22.51;57.34;100630.41;;;;-47
2019/06/21 16:34:36;;;;;;;5.17;2.29;;;;;;;22.51;57.34;100633.23;;;;-47
2019/06/21 16:37:35;;;;;;;2.55;2.35;;;;;;;22.51;57.33;100627.84;;;;-49
2019/06/21 16:40:35;;;;;;;4.81;2.45;;;;;;;22.50;57.32;100631.45;;;;-47
2019/06/21 16:43:35;;;;;;;2.77;2.30;;;;;;;22.49;57.22;100630.33;;;;-47